Time;durP1;ratioP1;P1;durP2;ratioP2;P2;SDS_P1;SDS_P2;PMS_P1;PMS_P2;Temp;Humidity;BMP_temperature;BMP_pressure;BME280_temperature;BME280_humidity;BME280_pressure;Samples;Min_cycle;Max_cycle;Signal;HPM_P1;HPM_P2
2022/08/02 00:01:44;;;;;;;0.45;0.45;;;12.00;99.90;;;;;;4951513;28;20046;-81
2022/08/02 00:04:10;;;;;;;0.40;0.40;;;12.00;99.90;;;;;;4948791;28;20050;-82
2022/08/02 00:06:37;;;;;;;0.40;0.40;;;12.00;99.90;;;;;;4956570;28;20038;-82
2022/08/02 00:09:03;;;;;;;0.40;0.40;;;12.00;99.90;;;;;;4955565;28;20545;-82
2022/08/02 00:11:30;;;;;;;0.40;0.40;;;12.10;99.90;;;;;;4958539;28;20050;-81
2022/08/02 00:13:56;;;;;;;0.40;0.40;;;12.10;99.90;;;;;;4971207;28;20513;-81
2022/08/02 00:16:22;;;;;;;0.40;0.40;;;12.10;99.90;;;;;;4957221;28;20070;-81
2022/08/02 00:18:48;;;;;;;0.40;0.40;;;12.10;99.90;;;;;;4961554;28;20084;-81
2022/08/02 00:21:13;;;;;;;0.40;0.40;;;12.00;99.90;;;;;;4955344;28;20132;-82
2022/08/02 00:23:39;;;;;;;0.40;0.40;;;12.00;99.90;;;;;;4959487;28;20509;-81
2022/08/02 00:26:05;;;;;;;0.40;0.40;;;12.00;99.90;;;;;;4959182;28;20196;-81
2022/08/02 00:28:31;;;;;;;0.47;0.47;;;12.00;99.90;;;;;;4960040;28;20045;-81
2022/08/02 00:30:57;;;;;;;0.40;0.40;;;12.00;99.90;;;;;;4942630;28;20045;-81
2022/08/02 00:33:23;;;;;;;0.40;0.40;;;12.10;99.90;;;;;;4974046;28;20050;-82
2022/08/02 00:35:49;;;;;;;0.40;0.40;;;12.00;99.90;;;;;;4953425;28;20069;-82
2022/08/02 00:38:15;;;;;;;0.40;0.40;;;12.00;99.90;;;;;;4959595;28;20136;-81
2022/08/02 00:40:45;;;;;;;0.40;0.40;;;12.10;99.90;;;;;;4965318;28;20058;-82
2022/08/02 00:43:11;;;;;;;0.40;0.40;;;12.10;99.90;;;;;;4965334;28;20084;-81
2022/08/02 00:45:40;;;;;;;0.40;0.40;;;12.10;99.90;;;;;;4951679;28;20129;-81
2022/08/02 00:48:07;;;;;;;0.40;0.40;;;12.10;99.90;;;;;;4977262;28;20050;-81
2022/08/02 00:50:35;;;;;;;0.40;0.40;;;12.00;99.90;;;;;;4978978;28;20069;-81
2022/08/02 00:53:01;;;;;;;0.40;0.40;;;12.00;99.90;;;;;;4981268;28;20065;-81
2022/08/02 00:55:28;;;;;;;0.40;0.40;;;12.00;99.90;;;;;;4978507;28;20058;-81
2022/08/02 00:57:54;;;;;;;0.40;0.40;;;12.00;99.90;;;;;;4976969;28;20129;-81
2022/08/02 01:00:20;;;;;;;0.40;0.40;;;12.10;99.90;;;;;;4976926;28;20053;-81
2022/08/02 01:02:46;;;;;;;0.40;0.40;;;12.10;99.90;;;;;;4975375;28;20108;-81
2022/08/02 01:05:13;;;;;;;0.40;0.40;;;12.10;99.90;;;;;;4971113;28;20042;-82
2022/08/02 01:07:39;;;;;;;0.40;0.40;;;12.00;99.90;;;;;;4980075;28;20046;-82
2022/08/02 01:10:06;;;;;;;0.40;0.40;;;12.00;99.90;;;;;;4976995;28;20382;-81
2022/08/02 01:12:32;;;;;;;0.40;0.40;;;12.00;99.90;;;;;;4964392;28;20088;-81
2022/08/02 01:15:04;;;;;;;0.50;0.50;;;12.10;99.90;;;;;;4960469;28;20691;-81
2022/08/02 01:17:39;;;;;;;0.40;0.40;;;12.10;99.90;;;;;;4964226;28;20076;-82
2022/08/02 01:20:34;;;;;;;0.40;0.40;;;12.00;99.90;;;;;;4964954;28;20057;-82
2022/08/02 01:23:03;;;;;;;0.40;0.40;;;12.00;99.90;;;;;;4960348;28;20050;-82
2022/08/02 01:25:34;;;;;;;0.40;0.40;;;12.00;99.90;;;;;;4981719;28;20057;-82
2022/08/02 01:28:19;;;;;;;0.40;0.40;;;12.00;99.90;;;;;;4963265;28;20044;-82
2022/08/02 01:30:47;;;;;;;0.40;0.40;;;12.00;99.90;;;;;;4982712;28;21269;-82
2022/08/02 01:33:17;;;;;;;0.40;0.40;;;12.10;99.90;;;;;;4967928;28;20081;-82
2022/08/02 01:35:52;;;;;;;0.40;0.40;;;12.10;99.90;;;;;;4962841;28;20148;-82
2022/08/02 01:38:43;;;;;;;0.40;0.40;;;12.10;99.90;;;;;;4961402;28;20703;-82
2022/08/02 01:41:14;;;;;;;0.40;0.40;;;12.10;99.90;;;;;;4963214;28;20054;-83
2022/08/02 01:43:43;;;;;;;0.40;0.40;;;12.10;99.90;;;;;;4967672;28;20104;-82
2022/08/02 01:46:11;;;;;;;0.40;0.40;;;12.00;99.90;;;;;;4954862;28;20120;-82
2022/08/02 01:48:40;;;;;;;0.40;0.40;;;11.90;99.90;;;;;;4957327;28;20156;-83
2022/08/02 01:51:11;;;;;;;0.40;0.40;;;11.70;99.90;;;;;;4958122;28;20066;-83
2022/08/02 01:53:38;;;;;;;0.40;0.40;;;11.80;99.90;;;;;;4958622;28;20053;-84
2022/08/02 01:56:06;;;;;;;0.40;0.40;;;11.80;99.90;;;;;;4956493;28;20061;-83
2022/08/02 01:58:36;;;;;;;0.40;0.40;;;11.80;99.90;;;;;;4953133;28;20050;-83
2022/08/02 02:01:05;;;;;;;0.40;0.40;;;11.80;99.90;;;;;;4955750;28;20049;-83
2022/08/02 02:03:33;;;;;;;0.40;0.40;;;11.80;99.90;;;;;;4956257;28;20567;-84
2022/08/02 02:06:00;;;;;;;0.40;0.40;;;11.80;99.90;;;;;;4948490;28;20181;-85
2022/08/02 02:08:39;;;;;;;0.40;0.40;;;11.90;99.90;;;;;;4945249;28;20046;-86
2022/08/02 02:11:05;;;;;;;0.40;0.40;;;11.90;99.90;;;;;;4951253;28;20054;-85
2022/08/02 02:13:32;;;;;;;0.40;0.40;;;11.90;99.90;;;;;;4959314;28;20484;-84
2022/08/02 02:16:01;;;;;;;0.68;0.60;;;12.00;99.90;;;;;;4952710;28;20829;-84
2022/08/02 02:18:29;;;;;;;0.40;0.40;;;12.10;99.90;;;;;;4956989;28;20054;-84
2022/08/02 02:20:55;;;;;;;0.40;0.40;;;12.10;99.90;;;;;;4959785;28;20064;-84
2022/08/02 02:23:21;;;;;;;0.40;0.40;;;12.10;99.90;;;;;;4956871;28;20453;-84
2022/08/02 02:25:48;;;;;;;0.50;0.50;;;12.10;99.90;;;;;;4950302;28;20162;-85
2022/08/02 02:28:28;;;;;;;0.40;0.40;;;12.00;99.90;;;;;;4945303;28;20053;-84
2022/08/02 02:31:08;;;;;;;0.40;0.40;;;12.00;99.90;;;;;;4958187;28;20050;-85
2022/08/02 02:33:47;;;;;;;0.40;0.40;;;12.00;99.90;;;;;;4957874;28;20046;-83
2022/08/02 02:36:16;;;;;;;0.43;0.43;;;11.90;99.90;;;;;;4953966;28;20054;-83
2022/08/02 02:38:44;;;;;;;0.40;0.40;;;11.70;99.90;;;;;;4957128;28;20050;-83
2022/08/02 02:41:11;;;;;;;0.40;0.40;;;11.50;99.90;;;;;;4951896;28;20081;-84
2022/08/02 02:43:38;;;;;;;0.50;0.50;;;11.40;99.90;;;;;;4946962;28;20058;-83
2022/08/02 02:46:05;;;;;;;0.40;0.40;;;11.40;99.90;;;;;;4956529;28;20064;-83
2022/08/02 02:48:32;;;;;;;0.80;0.50;;;11.40;99.90;;;;;;4961857;28;20043;-83
2022/08/02 02:51:02;;;;;;;0.40;0.40;;;11.30;99.90;;;;;;4964449;28;20062;-84
2022/08/02 02:53:29;;;;;;;0.50;0.50;;;11.10;99.90;;;;;;4965535;28;20049;-83
2022/08/02 02:55:56;;;;;;;0.40;0.40;;;11.10;99.90;;;;;;4966617;28;20046;-84
2022/08/02 02:58:22;;;;;;;0.60;0.60;;;11.10;99.90;;;;;;4964033;28;20050;-84
2022/08/02 03:03:34;;;;;;;0.40;0.40;;;11.00;99.90;;;;;;4970354;28;20161;-84
2022/08/02 03:05:59;;;;;;;0.50;0.50;;;11.00;99.90;;;;;;4960653;28;20116;-84
2022/08/02 03:08:25;;;;;;;0.40;0.40;;;11.10;99.90;;;;;;4974577;28;20081;-84
2022/08/02 03:10:52;;;;;;;0.40;0.40;;;11.20;99.90;;;;;;4974695;28;20057;-83
2022/08/02 03:13:18;;;;;;;0.80;0.80;;;11.30;99.90;;;;;;4975899;28;20058;-83
2022/08/02 03:15:46;;;;;;;0.40;0.40;;;11.30;99.90;;;;;;4973224;28;20045;-85
2022/08/02 03:18:49;;;;;;;0.40;0.40;;;11.30;99.90;;;;;;4977232;28;20057;-84
2022/08/02 03:21:14;;;;;;;0.57;0.57;;;11.30;99.90;;;;;;4925937;28;20043;-84
2022/08/02 03:23:42;;;;;;;0.40;0.40;;;11.30;99.90;;;;;;4953170;28;20072;-85
2022/08/02 03:26:09;;;;;;;0.40;0.40;;;11.40;99.90;;;;;;4976678;28;20074;-83
2022/08/02 03:28:35;;;;;;;0.40;0.40;;;11.40;99.90;;;;;;4962369;28;20065;-84
2022/08/02 03:31:01;;;;;;;0.40;0.40;;;11.40;99.90;;;;;;4971491;28;20052;-84
2022/08/02 03:33:28;;;;;;;0.40;0.40;;;11.40;99.90;;;;;;4973076;28;20061;-84
2022/08/02 03:35:57;;;;;;;0.40;0.40;;;11.40;99.90;;;;;;4959583;28;20059;-83
2022/08/02 03:38:25;;;;;;;0.40;0.40;;;11.30;99.90;;;;;;4978429;28;20091;-83
2022/08/02 03:40:52;;;;;;;0.40;0.40;;;11.30;99.90;;;;;;4982987;28;20123;-83
2022/08/02 03:43:19;;;;;;;0.40;0.40;;;11.30;99.90;;;;;;4959454;28;20448;-85
2022/08/02 03:45:49;;;;;;;0.40;0.40;;;11.30;99.90;;;;;;4974795;28;20805;-84
2022/08/02 03:48:15;;;;;;;0.40;0.40;;;11.30;99.90;;;;;;4976594;28;20762;-84
2022/08/02 03:50:44;;;;;;;0.40;0.40;;;11.30;99.90;;;;;;4974574;28;20141;-84
2022/08/02 03:53:10;;;;;;;0.40;0.40;;;11.30;99.90;;;;;;4972701;28;20142;-84
2022/08/02 03:55:38;;;;;;;0.40;0.40;;;11.30;99.90;;;;;;4967537;28;20042;-83
2022/08/02 03:58:04;;;;;;;0.50;0.50;;;11.30;99.90;;;;;;4963656;28;20273;-84
2022/08/02 04:00:30;;;;;;;0.40;0.40;;;11.30;99.90;;;;;;4962993;28;20050;-85
2022/08/02 04:02:56;;;;;;;0.47;0.47;;;11.40;99.90;;;;;;4961914;28;20050;-85
2022/08/02 04:05:22;;;;;;;0.50;0.50;;;11.40;99.90;;;;;;4957691;28;20097;-86
2022/08/02 04:07:49;;;;;;;0.50;0.50;;;11.40;99.90;;;;;;4958973;28;20652;-85
2022/08/02 04:10:15;;;;;;;0.50;0.50;;;11.50;99.90;;;;;;4943595;28;20054;-84
2022/08/02 04:12:41;;;;;;;0.50;0.50;;;11.50;99.90;;;;;;4969261;28;20639;-84
2022/08/02 04:15:09;;;;;;;0.50;0.50;;;11.50;99.90;;;;;;4958821;28;20061;-85
2022/08/02 04:17:40;;;;;;;0.40;0.40;;;11.50;99.90;;;;;;4956990;28;20124;-85
2022/08/02 04:20:20;;;;;;;0.40;0.40;;;11.60;99.90;;;;;;4967368;28;20136;-86
2022/08/02 04:22:51;;;;;;;0.40;0.40;;;11.60;99.90;;;;;;4962338;28;20425;-85
2022/08/02 04:25:19;;;;;;;0.47;0.47;;;11.60;99.90;;;;;;4966891;28;20093;-86
2022/08/02 04:27:46;;;;;;;0.50;0.50;;;11.70;99.90;;;;;;4961835;28;20541;-85
2022/08/02 04:30:14;;;;;;;0.50;0.50;;;11.70;99.90;;;;;;4943044;28;20149;-85
2022/08/02 04:32:43;;;;;;;0.40;0.40;;;11.80;99.90;;;;;;4957398;28;20054;-84
2022/08/02 04:35:09;;;;;;;0.40;0.40;;;11.80;99.90;;;;;;4975344;28;20062;-84
2022/08/02 04:37:36;;;;;;;0.70;0.70;;;11.80;99.90;;;;;;4956691;28;20057;-84
2022/08/02 04:40:07;;;;;;;0.40;0.40;;;11.80;99.90;;;;;;4974964;28;20117;-85
2022/08/02 04:42:32;;;;;;;0.40;0.40;;;11.90;99.90;;;;;;4961364;28;20131;-87
2022/08/02 04:44:58;;;;;;;0.40;0.40;;;11.90;99.90;;;;;;4960962;28;20050;-86
2022/08/02 04:47:24;;;;;;;0.40;0.40;;;11.90;99.90;;;;;;4974162;28;20109;-85
2022/08/02 04:49:50;;;;;;;0.50;0.50;;;12.00;99.90;;;;;;4975071;28;20417;-84
2022/08/02 04:52:16;;;;;;;0.40;0.40;;;12.00;99.90;;;;;;4987595;28;20513;-85
2022/08/02 04:54:42;;;;;;;0.40;0.40;;;12.00;99.90;;;;;;4974474;28;20042;-85
2022/08/02 04:59:52;;;;;;;0.40;0.40;;;12.20;99.90;;;;;;4974283;28;20046;-84
2022/08/02 05:02:18;;;;;;;0.50;0.50;;;12.30;99.90;;;;;;4975090;28;20050;-85
2022/08/02 05:04:43;;;;;;;0.40;0.40;;;12.80;99.90;;;;;;4970021;28;20516;-85
2022/08/02 05:07:09;;;;;;;0.50;0.50;;;12.90;99.90;;;;;;4971105;28;20046;-85
2022/08/02 05:09:35;;;;;;;0.40;0.40;;;13.00;99.90;;;;;;4973223;28;20405;-84
2022/08/02 05:12:01;;;;;;;0.40;0.40;;;13.40;99.90;;;;;;4974523;28;20049;-86
2022/08/02 05:14:26;;;;;;;0.45;0.45;;;15.20;99.90;;;;;;4976179;28;20141;-85
2022/08/02 05:16:52;;;;;;;0.40;0.40;;;16.20;99.90;;;;;;4971142;28;20091;-85
2022/08/02 05:19:18;;;;;;;0.47;0.47;;;17.00;99.90;;;;;;4971814;28;20854;-85
2022/08/02 05:21:44;;;;;;;0.40;0.40;;;17.90;99.90;;;;;;4972741;28;20058;-86
2022/08/02 05:24:10;;;;;;;0.50;0.50;;;18.20;99.90;;;;;;4973949;28;20993;-87
2022/08/02 05:26:35;;;;;;;0.30;0.30;;;18.70;99.90;;;;;;4962345;28;20045;-87
2022/08/02 05:29:04;;;;;;;0.40;0.40;;;19.00;99.90;;;;;;4974888;28;20588;-85
2022/08/02 05:31:30;;;;;;;0.40;0.40;;;19.30;99.90;;;;;;4973581;28;20081;-84
2022/08/02 05:33:56;;;;;;;0.40;0.40;;;19.80;99.90;;;;;;4978901;28;20592;-83
2022/08/02 05:36:22;;;;;;;0.30;0.30;;;20.20;99.90;;;;;;4969960;28;20756;-84
2022/08/02 05:38:49;;;;;;;0.30;0.30;;;20.70;99.90;;;;;;4994579;28;20121;-85
2022/08/02 05:41:17;;;;;;;0.45;0.45;;;21.00;99.90;;;;;;4957487;28;20050;-84
2022/08/02 05:43:44;;;;;;;0.40;0.40;;;20.80;99.90;;;;;;4974826;28;20053;-85
2022/08/02 05:46:10;;;;;;;0.40;0.40;;;21.10;99.90;;;;;;4970999;28;20054;-84
2022/08/02 05:48:35;;;;;;;0.40;0.40;;;21.40;99.90;;;;;;4975573;28;20602;-85
2022/08/02 05:51:10;;;;;;;0.40;0.40;;;21.60;99.90;;;;;;4974780;28;20718;-84
2022/08/02 05:53:51;;;;;;;0.52;0.52;;;21.60;99.90;;;;;;4974048;28;20082;-86
2022/08/02 05:56:24;;;;;;;0.30;0.30;;;20.20;99.90;;;;;;4974957;28;20157;-86
2022/08/02 05:59:00;;;;;;;0.30;0.30;;;19.60;99.90;;;;;;4972633;28;20122;-85
2022/08/02 06:01:32;;;;;;;0.40;0.40;;;19.00;99.90;;;;;;4969779;28;20054;-88
2022/08/02 06:03:59;;;;;;;0.30;0.30;;;18.70;99.90;;;;;;4978591;28;20050;-86
2022/08/02 06:06:28;;;;;;;0.40;0.40;;;18.60;99.90;;;;;;4977548;28;20054;-86
2022/08/02 06:09:01;;;;;;;0.30;0.30;;;18.50;99.90;;;;;;4957261;28;20805;-80
2022/08/02 06:11:35;;;;;;;0.30;0.30;;;19.00;99.90;;;;;;4966718;28;20054;-82
2022/08/02 06:14:03;;;;;;;0.40;0.40;;;19.00;99.90;;;;;;4973102;28;20374;-83
2022/08/02 06:16:29;;;;;;;0.32;0.32;;;19.20;99.90;;;;;;4968205;28;20051;-84
2022/08/02 06:18:57;;;;;;;0.40;0.40;;;19.50;99.90;;;;;;4966175;28;20053;-84
2022/08/02 06:21:24;;;;;;;0.30;0.30;;;19.70;99.90;;;;;;4969841;28;20057;-90
2022/08/02 06:23:50;;;;;;;0.30;0.30;;;20.00;99.90;;;;;;4964160;28;20053;-85
2022/08/02 06:26:17;;;;;;;0.38;0.38;;;20.00;99.90;;;;;;4970120;28;20038;-86
2022/08/02 06:28:51;;;;;;;0.30;0.30;;;19.90;99.90;;;;;;4965513;28;20085;-84
2022/08/02 06:31:17;;;;;;;0.30;0.30;;;19.90;99.90;;;;;;4950532;28;21951;-83
2022/08/02 06:33:43;;;;;;;0.30;0.30;;;20.40;99.90;;;;;;4967933;28;20863;-83
2022/08/02 06:36:33;;;;;;;0.30;0.30;;;20.20;99.90;;;;;;4971943;28;20543;-86
2022/08/02 06:39:19;;;;;;;0.40;0.40;;;20.30;99.90;;;;;;4975556;28;20056;-85
2022/08/02 06:41:48;;;;;;;0.32;0.32;;;20.70;99.90;;;;;;4983912;28;20089;-84
2022/08/02 06:44:14;;;;;;;0.30;0.30;;;20.90;99.90;;;;;;4970667;28;20148;-85
2022/08/02 06:46:41;;;;;;;1.20;0.82;;;21.10;99.90;;;;;;4970707;28;20081;-83
2022/08/02 06:49:07;;;;;;;0.30;0.30;;;21.30;99.90;;;;;;4966711;28;20504;-83
2022/08/02 06:51:33;;;;;;;0.30;0.30;;;21.30;99.90;;;;;;4972270;28;20054;-84
2022/08/02 06:53:58;;;;;;;0.30;0.30;;;21.50;99.90;;;;;;4971995;28;20492;-84
2022/08/02 06:56:24;;;;;;;0.30;0.30;;;21.60;99.90;;;;;;4973145;28;20050;-83
2022/08/02 06:58:50;;;;;;;0.30;0.30;;;21.60;99.90;;;;;;4968268;28;21260;-85
2022/08/02 07:01:18;;;;;;;0.30;0.30;;;21.80;99.90;;;;;;4967437;28;20046;-85
2022/08/02 07:03:44;;;;;;;0.30;0.30;;;21.60;99.90;;;;;;4968641;28;20057;-85
2022/08/02 07:06:10;;;;;;;0.30;0.30;;;21.50;99.90;;;;;;4965856;28;20051;-83
2022/08/02 07:08:37;;;;;;;0.30;0.30;;;21.30;99.90;;;;;;4969748;28;20786;-85
2022/08/02 07:11:12;;;;;;;0.30;0.30;;;21.50;99.90;;;;;;4966576;28;20071;-84
2022/08/02 07:13:38;;;;;;;0.32;0.32;;;21.40;99.90;;;;;;4968090;28;20050;-84
2022/08/02 07:16:04;;;;;;;0.32;0.32;;;21.60;99.90;;;;;;4970266;28;20497;-84
2022/08/02 07:18:30;;;;;;;0.30;0.30;;;21.90;99.90;;;;;;4986205;28;20081;-83
2022/08/02 07:20:56;;;;;;;0.30;0.30;;;21.90;99.90;;;;;;4970855;28;20568;-83
2022/08/02 07:23:22;;;;;;;0.30;0.30;;;22.10;99.90;;;;;;4971144;28;20050;-84
2022/08/02 07:25:48;;;;;;;0.30;0.30;;;22.30;99.90;;;;;;4971622;28;20081;-83
2022/08/02 07:28:14;;;;;;;0.30;0.30;;;22.70;99.90;;;;;;4973848;28;20088;-85
2022/08/02 07:30:42;;;;;;;0.30;0.30;;;22.70;99.90;;;;;;4966500;28;20112;-83
2022/08/02 07:33:08;;;;;;;0.30;0.30;;;22.90;99.90;;;;;;4970397;28;20527;-83
2022/08/02 07:35:34;;;;;;;0.30;0.30;;;23.10;99.90;;;;;;4974553;28;20117;-83
2022/08/02 07:38:00;;;;;;;0.30;0.30;;;22.80;99.90;;;;;;4989289;28;20113;-85
2022/08/02 07:40:26;;;;;;;0.30;0.30;;;22.90;99.90;;;;;;4959154;28;20129;-85
2022/08/02 07:42:54;;;;;;;0.30;0.30;;;22.50;99.90;;;;;;4952608;28;20668;-84
2022/08/02 07:45:20;;;;;;;0.30;0.30;;;22.50;99.90;;;;;;4950036;28;20045;-85
2022/08/02 07:47:47;;;;;;;0.30;0.30;;;22.30;99.90;;;;;;4956969;28;20073;-84
2022/08/02 07:50:14;;;;;;;0.30;0.30;;;22.20;99.90;;;;;;4949897;28;20052;-83
2022/08/02 07:52:41;;;;;;;0.30;0.30;;;22.40;99.90;;;;;;4951903;28;20478;-82
2022/08/02 07:55:08;;;;;;;0.30;0.30;;;22.40;99.90;;;;;;4952678;28;20053;-84
2022/08/02 07:57:35;;;;;;;0.30;0.30;;;22.80;99.90;;;;;;4933700;28;20049;-82
2022/08/02 08:00:02;;;;;;;0.30;0.30;;;22.90;99.90;;;;;;4960094;28;20053;-84
2022/08/02 08:02:28;;;;;;;0.30;0.30;;;22.90;99.90;;;;;;4946999;28;20074;-85
2022/08/02 08:04:54;;;;;;;0.22;0.22;;;23.00;99.90;;;;;;4955641;28;20161;-83
2022/08/02 08:07:20;;;;;;;0.30;0.30;;;23.30;99.90;;;;;;4955881;28;20591;-84
2022/08/02 08:09:47;;;;;;;0.30;0.30;;;23.20;99.90;;;;;;4949182;28;20046;-83
2022/08/02 08:12:14;;;;;;;0.30;0.30;;;23.50;99.90;;;;;;4948693;28;20108;-82
2022/08/02 08:14:40;;;;;;;0.20;0.20;;;23.90;99.90;;;;;;4957257;28;22414;-84
2022/08/02 08:17:06;;;;;;;0.30;0.30;;;23.80;99.90;;;;;;4961061;28;20086;-85
2022/08/02 08:19:32;;;;;;;0.28;0.28;;;24.00;99.90;;;;;;4953989;28;20536;-84
2022/08/02 08:22:02;;;;;;;0.30;0.30;;;23.80;99.90;;;;;;4960083;28;20815;-86
2022/08/02 08:24:28;;;;;;;0.30;0.30;;;23.80;99.90;;;;;;4955331;28;20158;-82
2022/08/02 08:26:55;;;;;;;0.30;0.30;;;23.90;99.90;;;;;;4958835;28;20058;-84
2022/08/02 08:29:21;;;;;;;0.30;0.30;;;23.80;99.90;;;;;;4957147;28;20086;-84
2022/08/02 08:31:47;;;;;;;0.30;0.30;;;23.90;99.90;;;;;;4957943;28;20054;-84
2022/08/02 08:34:13;;;;;;;0.30;0.30;;;24.00;99.90;;;;;;4955820;28;20100;-91
2022/08/02 08:36:40;;;;;;;0.20;0.20;;;23.90;99.90;;;;;;4955038;28;20400;-82
2022/08/02 08:39:05;;;;;;;0.30;0.30;;;24.00;99.90;;;;;;4959844;28;20041;-81
2022/08/02 08:41:31;;;;;;;0.20;0.20;;;24.10;99.90;;;;;;4954846;28;20579;-83
2022/08/02 08:43:58;;;;;;;0.30;0.30;;;24.30;99.90;;;;;;4959782;28;20489;-84
2022/08/02 08:46:33;;;;;;;0.30;0.30;;;24.40;99.90;;;;;;4950779;28;20050;-87
2022/08/02 08:49:02;;;;;;;0.28;0.28;;;24.70;99.90;;;;;;4955449;28;20225;-83
2022/08/02 08:51:37;;;;;;;0.20;0.20;;;24.80;99.90;;;;;;4969402;28;20053;-83
2022/08/02 08:54:06;;;;;;;0.30;0.30;;;24.80;99.90;;;;;;4948381;28;20054;-83
2022/08/02 08:56:34;;;;;;;0.30;0.30;;;24.80;99.90;;;;;;4954925;28;20054;-82
2022/08/02 08:59:01;;;;;;;0.30;0.30;;;24.90;99.90;;;;;;4958142;28;20061;-84
2022/08/02 09:01:27;;;;;;;0.20;0.20;;;25.10;99.90;;;;;;4951112;28;20057;-85
2022/08/02 09:03:53;;;;;;;0.20;0.20;;;25.10;99.90;;;;;;4956397;28;20730;-86
2022/08/02 09:06:19;;;;;;;0.30;0.30;;;25.30;99.90;;;;;;4949883;28;20133;-84
2022/08/02 09:08:45;;;;;;;0.30;0.30;;;25.40;99.90;;;;;;4954452;28;20046;-81
2022/08/02 09:11:15;;;;;;;0.30;0.30;;;25.20;99.90;;;;;;4955032;28;20042;-85
2022/08/02 09:13:55;;;;;;;0.30;0.30;;;25.40;99.90;;;;;;4952962;28;20788;-86
2022/08/02 09:16:36;;;;;;;0.30;0.30;;;25.30;99.90;;;;;;4957128;28;20046;-82
2022/08/02 09:19:25;;;;;;;0.20;0.20;;;25.30;99.90;;;;;;4958008;28;20054;-84
2022/08/02 09:21:59;;;;;;;0.30;0.30;;;25.60;99.90;;;;;;4953561;28;20408;-81
2022/08/02 09:24:25;;;;;;;0.30;0.30;;;25.80;99.90;;;;;;4954206;28;20418;-82
2022/08/02 09:26:51;;;;;;;0.20;0.20;;;25.90;99.90;;;;;;4953981;28;20050;-80
2022/08/02 09:29:20;;;;;;;0.28;0.28;;;26.10;99.90;;;;;;4940612;28;20544;-83
2022/08/02 09:31:46;;;;;;;0.20;0.20;;;26.40;99.90;;;;;;4971531;28;20162;-85
2022/08/02 09:34:12;;;;;;;0.20;0.20;;;26.60;99.90;;;;;;4964587;28;20038;-82
2022/08/02 09:36:39;;;;;;;0.25;0.25;;;26.50;99.90;;;;;;4958479;28;20065;-82
2022/08/02 09:39:07;;;;;;;0.20;0.20;;;26.70;99.90;;;;;;4961147;28;20054;-86
2022/08/02 09:41:36;;;;;;;0.20;0.20;;;26.80;99.90;;;;;;4972864;28;20600;-84
2022/08/02 09:44:04;;;;;;;0.20;0.20;;;26.50;99.90;;;;;;4963548;28;20073;-85
2022/08/02 09:46:36;;;;;;;0.20;0.20;;;26.80;99.90;;;;;;4971004;28;20046;-82
2022/08/02 09:49:06;;;;;;;0.20;0.20;;;26.80;99.90;;;;;;4970458;28;20092;-84
2022/08/02 09:51:46;;;;;;;0.30;0.30;;;27.00;99.90;;;;;;4952660;28;20145;-85
2022/08/02 09:54:27;;;;;;;0.20;0.20;;;26.80;99.90;;;;;;4969128;28;20568;-84
2022/08/02 09:56:59;;;;;;;0.30;0.30;;;26.70;99.90;;;;;;4972417;28;20057;-82
2022/08/02 09:59:26;;;;;;;0.20;0.20;;;26.90;99.90;;;;;;4968780;28;20519;-86
2022/08/02 10:01:54;;;;;;;0.20;0.20;;;27.10;99.90;;;;;;4968716;28;20058;-87
2022/08/02 10:04:21;;;;;;;0.20;0.20;;;27.20;99.90;;;;;;4973239;28;20435;-86
2022/08/02 10:06:49;;;;;;;0.28;0.28;;;27.30;99.90;;;;;;4968637;28;20927;-82
2022/08/02 10:09:15;;;;;;;0.20;0.20;;;27.50;99.90;;;;;;4973806;28;20061;-83
2022/08/02 10:11:41;;;;;;;0.20;0.20;;;27.70;99.90;;;;;;4972552;28;20049;-83
2022/08/02 10:14:09;;;;;;;0.20;0.20;;;27.70;99.90;;;;;;4960466;28;20556;-86
2022/08/02 10:16:40;;;;;;;0.30;0.30;;;27.40;99.90;;;;;;4969306;28;20496;-84
2022/08/02 10:19:07;;;;;;;0.20;0.20;;;27.40;99.90;;;;;;4962859;28;20157;-85
2022/08/02 10:21:47;;;;;;;0.20;0.20;;;27.40;99.90;;;;;;4966280;28;20820;-83
2022/08/02 10:24:14;;;;;;;0.20;0.20;;;27.50;99.90;;;;;;4967575;28;20842;-86
2022/08/02 10:26:42;;;;;;;0.20;0.20;;;27.10;99.90;;;;;;4967902;28;20178;-81
2022/08/02 10:29:09;;;;;;;0.30;0.30;;;27.00;99.90;;;;;;4969238;28;20623;-84
2022/08/02 10:31:52;;;;;;;0.20;0.20;;;26.90;99.90;;;;;;4962777;28;20057;-81
2022/08/02 10:34:22;;;;;;;0.20;0.20;;;27.20;99.90;;;;;;4960269;28;20185;-83
2022/08/02 10:36:49;;;;;;;0.20;0.20;;;27.20;99.90;;;;;;4956991;28;20055;-89
2022/08/02 10:39:15;;;;;;;0.30;0.30;;;27.20;99.90;;;;;;4959181;28;20062;-85
2022/08/02 10:41:47;;;;;;;0.28;0.28;;;27.00;99.90;;;;;;4940344;28;20050;-84
2022/08/02 10:44:25;;;;;;;0.25;0.25;;;27.30;99.90;;;;;;4960734;28;20057;-86
2022/08/02 10:47:12;;;;;;;0.30;0.30;;;27.20;99.90;;;;;;4963665;28;20081;-83
2022/08/02 10:49:57;;;;;;;0.25;0.25;;;27.70;99.90;;;;;;4978198;28;20346;-83
2022/08/02 10:52:31;;;;;;;0.22;0.22;;;27.80;99.90;;;;;;4957600;28;20049;-85
2022/08/02 10:54:59;;;;;;;0.22;0.22;;;28.10;99.90;;;;;;4961699;28;20052;-82
2022/08/02 10:57:30;;;;;;;0.30;0.30;;;28.00;99.90;;;;;;4958676;28;20480;-81
2022/08/02 11:00:25;;;;;;;0.30;0.30;;;28.10;99.90;;;;;;4954326;28;20050;-81
2022/08/02 11:02:52;;;;;;;0.20;0.20;;;28.10;99.90;;;;;;4956320;28;20062;-85
2022/08/02 11:05:33;;;;;;;0.30;0.30;;;27.90;99.90;;;;;;4964943;28;20409;-86
2022/08/02 11:08:20;;;;;;;0.28;0.28;;;27.80;99.90;;;;;;4974900;28;20046;-84
2022/08/02 11:10:47;;;;;;;0.20;0.20;;;27.90;99.90;;;;;;4961195;28;20054;-83
2022/08/02 11:13:18;;;;;;;0.20;0.20;;;27.90;99.90;;;;;;4961384;28;20145;-84
2022/08/02 11:15:54;;;;;;;0.20;0.20;;;28.00;99.90;;;;;;4956856;28;20287;-82
2022/08/02 11:18:21;;;;;;;0.20;0.20;;;28.10;99.90;;;;;;4957487;28;20046;-83
2022/08/02 11:21:07;;;;;;;0.20;0.20;;;28.20;99.90;;;;;;4957710;28;20060;-83
2022/08/02 11:23:37;;;;;;;0.20;0.20;;;28.10;99.90;;;;;;4960845;28;20057;-84
2022/08/02 11:26:28;;;;;;;0.20;0.20;;;28.10;99.90;;;;;;4961114;28;20050;-85
2022/08/02 11:28:54;;;;;;;0.22;0.22;;;28.10;99.90;;;;;;4958858;28;20061;-82
2022/08/02 11:31:20;;;;;;;0.20;0.20;;;28.20;99.90;;;;;;4963374;28;20091;-83
2022/08/02 11:33:49;;;;;;;0.20;0.20;;;28.30;99.90;;;;;;4970919;28;20846;-83
2022/08/02 11:36:15;;;;;;;0.22;0.22;;;28.80;99.90;;;;;;4968493;28;20133;-86
2022/08/02 11:38:42;;;;;;;0.28;0.28;;;28.70;99.90;;;;;;4977491;28;20077;-86
2022/08/02 11:41:08;;;;;;;0.20;0.20;;;28.60;99.90;;;;;;4973213;28;20079;-84
2022/08/02 11:43:35;;;;;;;0.20;0.20;;;28.40;99.90;;;;;;4975420;28;20523;-82
2022/08/02 11:46:10;;;;;;;0.20;0.20;;;28.30;99.90;;;;;;4978618;28;20058;-85
2022/08/02 11:48:38;;;;;;;0.20;0.20;;;28.20;99.90;;;;;;4968006;28;20056;-86
2022/08/02 11:51:08;;;;;;;0.20;0.20;;;28.20;99.90;;;;;;4940783;28;20065;-83
2022/08/02 11:54:06;;;;;;;0.20;0.20;;;28.40;99.90;;;;;;4961704;28;20073;-85
2022/08/02 11:56:32;;;;;;;0.20;0.20;;;28.40;99.90;;;;;;4932253;28;20061;-83
2022/08/02 11:59:09;;;;;;;0.20;0.20;;;28.70;99.90;;;;;;4957097;28;20046;-85
2022/08/02 12:01:37;;;;;;;0.20;0.20;;;28.80;99.90;;;;;;4960319;28;20141;-88
2022/08/02 12:04:05;;;;;;;0.20;0.20;;;28.80;99.90;;;;;;4965186;28;20053;-83
2022/08/02 12:06:32;;;;;;;0.28;0.28;;;29.10;99.90;;;;;;4969295;28;20046;-81
2022/08/02 12:09:06;;;;;;;0.20;0.20;;;29.10;99.90;;;;;;4976000;28;20054;-82
2022/08/02 12:11:33;;;;;;;0.20;0.20;;;28.40;99.90;;;;;;4972392;28;20046;-83
2022/08/02 12:13:59;;;;;;;0.20;0.20;;;28.00;99.90;;;;;;4967884;28;20103;-82
2022/08/02 12:19:18;;;;;;;0.20;0.20;;;27.70;99.90;;;;;;4976206;28;20108;-83
2022/08/02 12:21:46;;;;;;;0.20;0.20;;;28.20;99.90;;;;;;4959760;28;20079;-83
2022/08/02 12:24:12;;;;;;;0.20;0.20;;;28.70;99.90;;;;;;4968397;28;20042;-82
2022/08/02 12:26:45;;;;;;;0.20;0.20;;;29.30;99.90;;;;;;4971575;28;20057;-84
2022/08/02 12:29:11;;;;;;;0.20;0.20;;;29.40;99.90;;;;;;4975517;28;20132;-82
2022/08/02 12:31:48;;;;;;;0.20;0.20;;;29.40;99.90;;;;;;4968755;28;20595;-82
2022/08/02 12:34:17;;;;;;;0.20;0.20;;;29.30;99.90;;;;;;4953538;28;20069;-82
2022/08/02 12:36:57;;;;;;;0.20;0.20;;;29.40;99.90;;;;;;4963956;28;20045;-82
2022/08/02 12:39:42;;;;;;;0.20;0.20;;;29.10;99.90;;;;;;4961399;28;20061;-81
2022/08/02 12:42:10;;;;;;;0.20;0.20;;;29.20;99.90;;;;;;4953088;28;20423;-82
2022/08/02 12:44:53;;;;;;;0.30;0.30;;;29.30;99.90;;;;;;4970990;28;20454;-84
2022/08/02 12:47:22;;;;;;;0.20;0.20;;;29.20;99.80;;;;;;4970907;28;20054;-82
2022/08/02 12:50:10;;;;;;;0.20;0.20;;;29.50;99.90;;;;;;4973652;28;20072;-83
2022/08/02 12:52:36;;;;;;;0.20;0.20;;;29.10;99.90;;;;;;4971751;28;20053;-82
2022/08/02 12:55:19;;;;;;;0.20;0.20;;;29.10;99.90;;;;;;4976711;28;20049;-82
2022/08/02 12:58:10;;;;;;;0.30;0.30;;;28.90;99.80;;;;;;4969731;28;20046;-81
2022/08/02 13:00:37;;;;;;;0.20;0.20;;;28.50;99.50;;;;;;4964035;28;20073;-82
2022/08/02 13:03:04;;;;;;;0.25;0.25;;;28.60;99.90;;;;;;4970276;28;20120;-87
2022/08/02 13:05:33;;;;;;;0.20;0.20;;;29.10;99.90;;;;;;4971334;28;20064;-81
2022/08/02 13:07:59;;;;;;;0.22;0.22;;;29.00;99.90;;;;;;4973028;28;20042;-83